Aviation Digital Data Service (ADDS)

Output produced by METARs form (2125 UTC 20 August 2019)
found at http://www.aviationweather.gov/metar/data/
 
Forecast for: KDAB (DAYTONA BEACH , FL, US)
Text: KDAB 201734Z 2018/2118 11009KT P6SM FEW035 BKN250
Forecast period: 1800 UTC 20 August 2019 to 0000 UTC 21 August 2019
Forecast type: FROM: standard forecast or significant change
Winds: from the ESE (110 degrees) at 10 MPH (9 knots; 4.6 m/s)
Visibility: 6 or more miles 10+ km)
Ceiling: 25000 feet AGL
Clouds: few clouds at 3500 feet AGL
broken clouds at 25000 feet AGL
Weather: no significant weather forecast for this period
Text: FM210000 VRB03KT P6SM FEW020 SCT250
Forecast period: 0000 to 1500 UTC 21 August 2019
Forecast type: FROM: standard forecast or significant change
Winds: variable direction winds at 3 MPH (3 knots; 1.5 m/s)
Visibility: 6 or more miles 10+ km)
Ceiling: at least 12,000 feet AGL
Clouds: few clouds at 2000 feet AGL
scattered clouds at 25000 feet AGL
Weather: no significant weather forecast for this period
Text: FM211500 12007KT P6SM SCT030 SCT250
Forecast period: 1500 to 1800 UTC 21 August 2019
Forecast type: FROM: standard forecast or significant change
Winds: from the ESE (120 degrees) at 8 MPH (7 knots; 3.6 m/s)
Visibility: 6 or more miles 10+ km)
Ceiling: at least 12,000 feet AGL
Clouds: scattered clouds at 3000 feet AGL
scattered clouds at 25000 feet AGL
Weather: no significant weather forecast for this period